createdAt,value
2018-09-19T00:01:33.516Z,1.77
2018-09-19T00:04:01.742Z,1.90
2018-09-19T00:06:29.980Z,1.90
2018-09-19T00:09:02.888Z,1.83
2018-09-19T00:11:31.144Z,1.90
2018-09-19T00:13:59.408Z,2.00
2018-09-19T00:16:27.627Z,2.00
2018-09-19T00:18:59.851Z,1.93
2018-09-19T00:21:28.155Z,1.90
2018-09-19T00:23:56.395Z,1.87
2018-09-19T00:26:24.692Z,2.27
2018-09-19T00:28:52.863Z,2.27
2018-09-19T00:31:21.177Z,2.20
2018-09-19T00:33:49.479Z,1.90
2018-09-19T00:36:17.715Z,2.20
2018-09-19T00:38:45.967Z,2.13
2018-09-19T00:41:14.202Z,1.63
2018-09-19T00:43:42.463Z,2.07
2018-09-19T00:46:10.729Z,2.00
2018-09-19T00:48:38.962Z,2.00
2018-09-19T00:51:07.434Z,1.90
2018-09-19T00:53:35.662Z,2.10
2018-09-19T00:56:03.971Z,2.00
2018-09-19T00:58:32.256Z,1.90
2018-09-19T01:01:04.769Z,2.17
2018-09-19T01:03:33.027Z,2.17
2018-09-19T01:06:01.347Z,1.90
2018-09-19T01:08:29.654Z,2.50
2018-09-19T01:10:57.889Z,1.83
2018-09-19T01:13:26.146Z,2.00
2018-09-19T01:15:54.476Z,1.90
2018-09-19T01:18:22.723Z,2.30
2018-09-19T01:20:51.795Z,2.17
2018-09-19T01:23:20.043Z,2.20
2018-09-19T01:25:48.315Z,2.00
2018-09-19T01:28:16.597Z,2.10
2018-09-19T01:30:44.928Z,1.97
2018-09-19T01:33:13.215Z,2.60
2018-09-19T01:35:41.471Z,2.13
2018-09-19T01:38:09.742Z,2.50
2018-09-19T01:40:38.012Z,1.90
2018-09-19T01:43:07.459Z,2.40
2018-09-19T01:45:35.775Z,2.33
2018-09-19T01:48:04.082Z,2.17
2018-09-19T01:50:32.335Z,2.07
2018-09-19T01:53:05.436Z,2.20
2018-09-19T01:55:33.714Z,2.37
2018-09-19T01:58:01.929Z,2.73
2018-09-19T02:00:30.220Z,2.10
2018-09-19T02:02:58.487Z,2.00
2018-09-19T02:05:26.778Z,2.10
2018-09-19T02:07:55.021Z,2.30
2018-09-19T02:10:23.361Z,2.13
2018-09-19T02:12:51.680Z,2.37
2018-09-19T02:15:19.985Z,2.17
2018-09-19T02:17:48.224Z,2.20
2018-09-19T02:20:16.486Z,2.37
2018-09-19T02:22:44.791Z,2.30
2018-09-19T02:25:13.080Z,2.17
2018-09-19T02:27:41.316Z,2.33
2018-09-19T02:30:09.657Z,1.90
2018-09-19T02:32:37.938Z,2.20
2018-09-19T02:35:09.056Z,2.00
2018-09-19T02:37:37.306Z,2.03
2018-09-19T02:40:05.969Z,2.27
2018-09-19T02:42:34.288Z,2.03
2018-09-19T02:45:02.694Z,2.50
2018-09-19T02:47:30.987Z,2.03
2018-09-19T02:49:59.235Z,2.10
2018-09-19T02:52:27.509Z,2.33
2018-09-19T02:54:55.795Z,2.03
2018-09-19T02:57:24.135Z,2.08
2018-09-19T02:59:52.498Z,2.00
2018-09-19T03:02:20.779Z,2.13
2018-09-19T03:04:49.054Z,1.90
2018-09-19T03:07:17.338Z,2.23
2018-09-19T03:09:45.611Z,1.70
2018-09-19T03:12:13.910Z,2.30
2018-09-19T03:14:42.190Z,2.17
2018-09-19T03:17:11.362Z,2.13
2018-09-19T03:19:39.638Z,2.30
2018-09-19T03:22:07.887Z,2.17
2018-09-19T03:24:36.192Z,2.27
2018-09-19T03:27:04.486Z,2.47
2018-09-19T03:29:33.973Z,2.17
2018-09-19T03:32:02.309Z,2.23
2018-09-19T03:34:30.899Z,2.20
2018-09-19T03:36:59.223Z,2.03
2018-09-19T03:39:27.508Z,2.30
2018-09-19T03:41:55.763Z,2.13
2018-09-19T03:44:24.046Z,2.37
2018-09-19T03:46:52.335Z,2.70
2018-09-19T03:49:20.635Z,2.37
2018-09-19T03:51:48.879Z,2.40
2018-09-19T03:54:17.197Z,2.13
2018-09-19T03:56:45.427Z,2.00
2018-09-19T03:59:13.701Z,2.00
2018-09-19T04:01:41.972Z,2.13
2018-09-19T04:04:10.254Z,1.97
2018-09-19T04:06:38.603Z,2.33
2018-09-19T04:09:14.002Z,1.90
2018-09-19T04:11:42.259Z,2.10
2018-09-19T04:14:11.346Z,2.37
2018-09-19T04:16:39.767Z,2.70
2018-09-19T04:19:12.296Z,2.03
2018-09-19T04:21:48.556Z,2.63
2018-09-19T04:24:16.897Z,2.23
2018-09-19T04:26:45.292Z,2.10
2018-09-19T04:29:16.036Z,2.63
2018-09-19T04:31:44.564Z,2.37
2018-09-19T04:34:13.572Z,2.50
2018-09-19T04:36:41.810Z,2.40
2018-09-19T04:39:14.439Z,2.27
2018-09-19T04:41:43.203Z,2.53
2018-09-19T04:44:11.447Z,2.77
2018-09-19T04:46:40.316Z,2.37
2018-09-19T04:49:09.012Z,2.77
2018-09-19T04:51:38.294Z,2.53
2018-09-19T04:54:06.645Z,2.67
2018-09-19T04:56:35.263Z,2.40
2018-09-19T04:59:03.525Z,2.33
2018-09-19T05:01:31.795Z,2.60
2018-09-19T05:04:00.117Z,2.73
2018-09-19T05:06:28.414Z,2.40
2018-09-19T05:08:56.862Z,2.97
2018-09-19T05:11:25.194Z,2.57
2018-09-19T05:13:53.455Z,2.73
2018-09-19T05:16:21.700Z,2.57
2018-09-19T05:18:50.402Z,3.13
2018-09-19T05:21:18.709Z,3.20
2018-09-19T05:23:47.159Z,3.73
2018-09-19T05:26:15.420Z,2.80
2018-09-19T05:28:43.666Z,2.43
2018-09-19T05:31:14.005Z,2.43
2018-09-19T05:33:45.354Z,3.00
2018-09-19T05:36:13.666Z,2.80
2018-09-19T05:38:41.948Z,2.43
2018-09-19T05:41:10.552Z,2.73
2018-09-19T05:43:39.297Z,3.00
2018-09-19T05:46:07.677Z,2.47
2018-09-19T05:48:36.043Z,2.60
2018-09-19T05:51:04.347Z,2.90
2018-09-19T05:53:33.690Z,2.50
2018-09-19T05:56:01.980Z,2.40
2018-09-19T05:58:30.347Z,2.90
2018-09-19T06:00:58.610Z,3.10
2018-09-19T06:03:26.923Z,3.00
2018-09-19T06:05:55.199Z,2.70
2018-09-19T06:08:23.489Z,3.17
2018-09-19T06:10:51.726Z,2.80
2018-09-19T06:13:23.396Z,3.27
2018-09-19T06:15:51.655Z,3.27
2018-09-19T06:18:19.889Z,2.87
2018-09-19T06:20:48.167Z,3.00
2018-09-19T06:23:20.938Z,2.60
2018-09-19T06:25:49.177Z,3.33
2018-09-19T06:28:17.456Z,3.27
2018-09-19T06:30:46.798Z,3.03
2018-09-19T06:33:23.053Z,3.13
2018-09-19T06:35:51.474Z,2.63
2018-09-19T06:38:19.763Z,2.97
2018-09-19T06:40:48.210Z,3.50
2018-09-19T06:43:16.425Z,2.93
2018-09-19T06:45:45.551Z,2.97
2018-09-19T06:48:14.013Z,3.47
2018-09-19T06:50:42.284Z,2.87
2018-09-19T06:53:10.525Z,3.07
2018-09-19T06:55:38.846Z,3.17
2018-09-19T06:58:07.106Z,3.00
2018-09-19T07:00:35.397Z,3.00
2018-09-19T07:03:03.648Z,3.67
2018-09-19T07:05:31.890Z,3.00
2018-09-19T07:08:00.175Z,3.30
2018-09-19T07:10:28.490Z,3.13
2018-09-19T07:12:56.691Z,2.87
2018-09-19T07:15:25.628Z,3.43
2018-09-19T07:17:54.307Z,3.27
2018-09-19T07:20:22.613Z,3.80
2018-09-19T07:22:50.912Z,3.90
2018-09-19T07:25:19.235Z,2.93
2018-09-19T07:27:47.590Z,3.17
2018-09-19T07:30:16.003Z,3.03
2018-09-19T07:32:44.272Z,3.20
2018-09-19T07:35:12.522Z,3.77
2018-09-19T07:37:41.373Z,4.20
2018-09-19T07:40:09.719Z,3.47
2018-09-19T07:42:37.936Z,3.87
2018-09-19T07:45:06.246Z,3.53
2018-09-19T07:47:34.560Z,3.63
2018-09-19T07:50:03.212Z,2.97
2018-09-19T07:52:31.534Z,3.00
2018-09-19T07:54:59.859Z,3.50
2018-09-19T07:57:28.652Z,3.17
2018-09-19T07:59:56.965Z,2.87
2018-09-19T08:02:25.267Z,3.07
2018-09-19T08:04:53.670Z,2.87
2018-09-19T08:07:21.941Z,3.00
2018-09-19T08:09:50.285Z,3.10
2018-09-19T08:12:18.519Z,3.03
2018-09-19T08:14:49.112Z,2.70
2018-09-19T08:17:17.401Z,2.80
2018-09-19T08:19:45.666Z,2.83
2018-09-19T08:22:13.916Z,2.43
2018-09-19T08:24:42.875Z,2.93
2018-09-19T08:27:11.155Z,2.70
2018-09-19T08:29:39.985Z,2.30
2018-09-19T08:32:08.382Z,3.10
2018-09-19T08:34:36.597Z,2.47
2018-09-19T08:37:04.912Z,2.30
2018-09-19T08:39:33.333Z,2.83
2018-09-19T08:42:01.736Z,2.30
2018-09-19T08:44:29.995Z,2.40
2018-09-19T08:46:58.269Z,2.03
2018-09-19T08:49:31.018Z,2.20
2018-09-19T08:51:59.307Z,3.00
2018-09-19T08:54:27.678Z,2.53
2018-09-19T08:56:55.992Z,2.07
2018-09-19T08:59:25.111Z,2.43
2018-09-19T09:01:54.117Z,2.07
2018-09-19T09:04:22.538Z,1.93
2018-09-19T09:06:55.783Z,2.27
2018-09-19T09:09:32.640Z,2.10
2018-09-19T09:12:00.958Z,1.90
2018-09-19T09:14:29.244Z,2.17
2018-09-19T09:16:57.684Z,2.20
2018-09-19T09:19:25.923Z,1.97
2018-09-19T09:21:55.861Z,2.80
2018-09-19T09:24:24.085Z,2.20
2018-09-19T09:26:52.383Z,2.33
2018-09-19T09:29:21.325Z,2.77
2018-09-19T09:31:50.049Z,2.53
2018-09-19T09:34:18.457Z,2.03
2018-09-19T09:36:46.732Z,2.47
2018-09-19T09:39:15.103Z,2.03
2018-09-19T09:41:43.391Z,2.20
2018-09-19T09:44:11.726Z,2.00
2018-09-19T09:46:40.017Z,2.33
2018-09-19T09:49:08.335Z,1.90
2018-09-19T09:51:36.783Z,1.90
2018-09-19T09:54:05.177Z,2.00
2018-09-19T09:56:33.443Z,2.30
2018-09-19T09:59:01.908Z,2.07
2018-09-19T10:01:30.267Z,2.10
2018-09-19T10:03:59.053Z,1.90
2018-09-19T10:06:27.501Z,1.87
2018-09-19T10:08:55.755Z,2.60
2018-09-19T10:11:23.978Z,2.17
2018-09-19T10:13:53.791Z,2.33
2018-09-19T10:16:22.157Z,1.73
2018-09-19T10:18:50.415Z,2.47
2018-09-19T10:21:18.682Z,1.67
2018-09-19T10:23:48.678Z,2.10
2018-09-19T10:26:16.965Z,2.00
2018-09-19T10:28:45.231Z,2.10
2018-09-19T10:31:13.525Z,1.60
2018-09-19T10:33:41.977Z,1.87
2018-09-19T10:36:10.292Z,2.10
2018-09-19T10:38:38.502Z,1.73
2018-09-19T10:41:06.825Z,1.80
2018-09-19T10:43:37.410Z,1.67
2018-09-19T10:46:06.509Z,1.70
2018-09-19T10:48:34.752Z,1.80
2018-09-19T10:51:03.035Z,1.73
2018-09-19T10:53:31.329Z,1.77
2018-09-19T10:56:00.202Z,1.80
2018-09-19T10:58:28.442Z,1.50
2018-09-19T11:00:56.708Z,1.63
2018-09-19T11:03:25.010Z,1.67
2018-09-19T11:05:54.747Z,1.70
2018-09-19T11:08:23.044Z,1.63
2018-09-19T11:10:51.268Z,1.67
2018-09-19T11:13:19.503Z,1.77
2018-09-19T11:15:47.740Z,1.77
2018-09-19T11:18:16.255Z,1.93
2018-09-19T11:20:44.545Z,1.60
2018-09-19T11:23:12.816Z,1.57
2018-09-19T11:25:41.472Z,1.83
2018-09-19T11:28:11.129Z,1.50
2018-09-19T11:30:39.467Z,1.70
2018-09-19T11:33:07.741Z,1.50
2018-09-19T11:35:35.994Z,1.87
2018-09-19T11:38:05.422Z,2.03
2018-09-19T11:40:33.711Z,2.00
2018-09-19T11:43:02.005Z,1.70
2018-09-19T11:45:30.395Z,1.70
2018-09-19T11:47:58.896Z,1.80
2018-09-19T11:50:27.186Z,2.10
2018-09-19T11:52:55.460Z,1.97
2018-09-19T11:55:23.766Z,1.77
2018-09-19T11:57:52.044Z,1.97
2018-09-19T12:00:21.349Z,1.80
2018-09-19T12:02:49.695Z,1.70
2018-09-19T12:05:18.071Z,2.33
2018-09-19T12:07:46.394Z,1.90
2018-09-19T12:10:15.048Z,2.20
2018-09-19T12:12:43.280Z,1.90
2018-09-19T12:15:11.558Z,1.67
2018-09-19T12:17:40.506Z,1.93
2018-09-19T12:20:09.814Z,1.62
2018-09-19T12:22:38.083Z,1.87
2018-09-19T12:25:06.399Z,2.00
2018-09-19T12:27:34.669Z,1.90
2018-09-19T12:30:05.156Z,1.70
2018-09-19T12:32:33.461Z,1.97
2018-09-19T12:35:01.716Z,1.63
2018-09-19T12:37:29.976Z,1.97
2018-09-19T12:39:58.366Z,1.60
2018-09-19T12:42:26.638Z,1.57
2018-09-19T12:44:54.912Z,1.73
2018-09-19T12:47:23.193Z,1.80
2018-09-19T12:49:51.659Z,1.57
2018-09-19T12:52:19.910Z,1.70
2018-09-19T12:54:48.282Z,1.57
2018-09-19T12:57:16.501Z,1.47
2018-09-19T12:59:46.457Z,1.70
2018-09-19T13:02:15.023Z,1.63
2018-09-19T13:04:43.282Z,1.73
2018-09-19T13:07:11.526Z,1.77
2018-09-19T13:09:39.817Z,1.43
2018-09-19T13:12:08.331Z,2.00
2018-09-19T13:14:36.568Z,1.73
2018-09-19T13:17:04.835Z,1.50
2018-09-19T13:19:33.089Z,1.70
2018-09-19T13:22:01.364Z,1.70
2018-09-19T13:24:29.660Z,1.70
2018-09-19T13:26:57.935Z,1.50
2018-09-19T13:29:27.470Z,1.50
2018-09-19T13:31:55.773Z,1.53
2018-09-19T13:34:24.075Z,1.70
2018-09-19T13:36:52.385Z,1.80
2018-09-19T13:39:20.605Z,1.93
2018-09-19T13:41:50.409Z,1.70
2018-09-19T13:44:19.694Z,1.70
2018-09-19T13:46:47.915Z,1.40
2018-09-19T13:49:37.171Z,1.67
2018-09-19T13:52:05.562Z,1.70
2018-09-19T13:54:33.774Z,1.87
2018-09-19T13:57:02.065Z,1.70
2018-09-19T13:59:31.880Z,1.70
2018-09-19T14:02:00.104Z,1.80
2018-09-19T14:04:28.416Z,1.90
2018-09-19T14:06:56.711Z,1.50
2018-09-19T14:09:24.946Z,1.57
2018-09-19T14:11:54.066Z,1.90
2018-09-19T14:14:22.375Z,1.70
2018-09-19T14:16:50.671Z,1.87
2018-09-19T14:19:18.922Z,1.87
2018-09-19T14:21:47.219Z,1.53
2018-09-19T14:24:15.931Z,1.60
2018-09-19T14:26:44.186Z,1.50
2018-09-19T14:29:12.490Z,1.43
2018-09-19T14:31:40.780Z,1.60
2018-09-19T14:34:09.125Z,2.00
2018-09-19T14:36:37.362Z,1.70
2018-09-19T14:39:07.075Z,1.60
2018-09-19T14:41:35.388Z,2.13
2018-09-19T14:44:03.650Z,2.10
2018-09-19T14:46:32.074Z,1.73
2018-09-19T14:49:00.345Z,2.40
2018-09-19T14:51:28.691Z,1.60
2018-09-19T14:53:57.546Z,1.87
2018-09-19T14:56:25.821Z,1.77
2018-09-19T14:58:54.115Z,1.40
2018-09-19T15:01:22.467Z,1.60
2018-09-19T15:03:50.732Z,1.93
2018-09-19T15:06:19.680Z,1.80
2018-09-19T15:08:47.971Z,1.90
2018-09-19T15:11:16.393Z,2.00
2018-09-19T15:13:44.631Z,1.70
2018-09-19T15:16:14.964Z,1.60
2018-09-19T15:18:43.264Z,1.70
2018-09-19T15:21:11.510Z,1.70
2018-09-19T15:23:39.785Z,1.50
2018-09-19T15:26:08.066Z,1.57
2018-09-19T15:28:36.920Z,1.57
2018-09-19T15:31:05.185Z,1.57
2018-09-19T15:33:33.434Z,1.53
2018-09-19T15:36:01.754Z,1.57
2018-09-19T15:38:30.459Z,1.80
2018-09-19T15:40:58.656Z,1.20
2018-09-19T15:43:26.907Z,1.87
2018-09-19T15:45:55.146Z,1.70
2018-09-19T15:48:23.908Z,1.90
2018-09-19T15:50:52.159Z,2.00
2018-09-19T15:53:20.446Z,1.67
2018-09-19T15:55:48.687Z,1.90
2018-09-19T15:58:18.475Z,1.80
2018-09-19T16:00:46.755Z,1.70
2018-09-19T16:03:15.056Z,1.70
2018-09-19T16:05:43.390Z,1.90
2018-09-19T16:08:11.726Z,1.50
2018-09-19T16:10:40.063Z,1.70
2018-09-19T16:13:08.784Z,1.70
2018-09-19T16:15:37.115Z,1.50
2018-09-19T16:18:05.476Z,1.50
2018-09-19T16:20:34.917Z,1.83
2018-09-19T16:23:03.205Z,1.40
2018-09-19T16:25:31.514Z,1.50
2018-09-19T16:28:00.380Z,1.60
2018-09-19T16:30:28.699Z,1.67
2018-09-19T16:32:56.963Z,1.67
2018-09-19T16:35:25.246Z,1.50
2018-09-19T16:37:53.513Z,1.70
2018-09-19T16:40:22.687Z,1.70
2018-09-19T16:42:51.639Z,1.60
2018-09-19T16:45:20.507Z,2.10
2018-09-19T16:47:48.826Z,1.50
2018-09-19T16:50:20.298Z,1.60
2018-09-19T16:52:48.737Z,1.73
2018-09-19T16:55:17.846Z,1.60
2018-09-19T16:57:46.126Z,1.40
2018-09-19T17:00:15.466Z,1.50
2018-09-19T17:02:44.302Z,1.53
2018-09-19T17:05:13.082Z,1.70
2018-09-19T17:07:41.532Z,1.80
2018-09-19T17:10:10.123Z,2.33
2018-09-19T17:12:38.530Z,1.83
2018-09-19T17:15:07.232Z,1.70
2018-09-19T17:17:35.515Z,1.70
2018-09-19T17:20:03.827Z,1.97
2018-09-19T17:22:33.834Z,1.90
2018-09-19T17:25:02.179Z,1.73
2018-09-19T17:27:31.658Z,2.00
2018-09-19T17:30:00.165Z,1.77
2018-09-19T17:32:28.588Z,2.00
2018-09-19T17:34:57.290Z,1.50
2018-09-19T17:37:25.662Z,1.73
2018-09-19T17:39:53.920Z,1.63
2018-09-19T17:42:23.832Z,1.70
2018-09-19T17:44:52.133Z,1.67
2018-09-19T17:47:20.382Z,1.60
2018-09-19T17:49:48.681Z,1.70
2018-09-19T17:52:17.032Z,1.80
2018-09-19T17:54:45.514Z,1.73
2018-09-19T17:57:13.880Z,1.87
2018-09-19T17:59:42.999Z,1.73
2018-09-19T18:02:12.639Z,1.70
2018-09-19T18:04:41.429Z,1.57
2018-09-19T18:07:09.799Z,1.60
2018-09-19T18:09:38.106Z,1.60
2018-09-19T18:12:06.717Z,1.80
2018-09-19T18:14:35.916Z,1.70
2018-09-19T18:17:04.293Z,1.90
2018-09-19T18:19:32.619Z,1.70
2018-09-19T18:22:00.892Z,1.90
2018-09-19T18:24:29.636Z,1.70
2018-09-19T18:26:58.561Z,1.60
2018-09-19T18:29:28.078Z,1.60
2018-09-19T18:31:56.760Z,1.70
2018-09-19T18:34:27.706Z,1.57
2018-09-19T18:36:55.991Z,1.70
2018-09-19T18:39:24.338Z,1.50
2018-09-19T18:41:52.683Z,1.77
2018-09-19T18:44:20.970Z,1.87
2018-09-19T18:46:49.615Z,1.80
2018-09-19T18:49:17.920Z,1.50
2018-09-19T18:51:46.247Z,1.80
2018-09-19T18:54:23.079Z,1.50
2018-09-19T18:56:51.882Z,1.80
2018-09-19T18:59:21.608Z,1.60
2018-09-19T19:01:50.412Z,1.80
2018-09-19T19:04:18.753Z,2.00
2018-09-19T19:06:47.105Z,1.97
2018-09-19T19:09:15.404Z,1.90
2018-09-19T19:11:43.682Z,1.63
2018-09-19T19:14:15.730Z,1.80
2018-09-19T19:16:44.279Z,1.57
2018-09-19T19:19:12.615Z,1.83
2018-09-19T19:21:40.987Z,1.53
2018-09-19T19:24:09.308Z,1.40
2018-09-19T19:26:37.847Z,2.10
2018-09-19T19:29:06.205Z,2.10
2018-09-19T19:31:34.496Z,1.63
2018-09-19T19:34:02.955Z,1.60
2018-09-19T19:36:32.713Z,1.30
2018-09-19T19:39:01.078Z,2.00
2018-09-19T19:41:29.389Z,1.83
2018-09-19T19:43:57.672Z,1.80
2018-09-19T19:46:27.103Z,1.80
2018-09-19T19:48:55.394Z,1.97
2018-09-19T19:51:23.682Z,1.80
2018-09-19T19:53:52.627Z,1.67
2018-09-19T19:56:21.000Z,1.73
2018-09-19T19:58:49.258Z,1.70
2018-09-19T20:01:17.582Z,1.80
2018-09-19T20:03:45.951Z,1.73
2018-09-19T20:06:14.282Z,1.93
2018-09-19T20:08:43.400Z,1.93
2018-09-19T20:11:11.833Z,2.00
2018-09-19T20:13:40.104Z,1.80
2018-09-19T20:16:08.427Z,1.80
2018-09-19T20:18:39.745Z,2.13
2018-09-19T20:21:08.131Z,1.70
2018-09-19T20:23:36.394Z,2.10
2018-09-19T20:26:04.690Z,1.70
2018-09-19T20:28:34.489Z,1.83
2018-09-19T20:31:03.005Z,1.60
2018-09-19T20:33:31.337Z,2.23
2018-09-19T20:35:59.626Z,2.07
2018-09-19T20:38:30.062Z,1.80
2018-09-19T20:40:58.425Z,2.00
2018-09-19T20:43:26.704Z,1.97
2018-09-19T20:45:55.006Z,1.67
2018-09-19T20:48:26.321Z,1.90
2018-09-19T20:50:54.647Z,1.43
2018-09-19T20:53:22.919Z,1.93
2018-09-19T20:55:51.306Z,1.70
2018-09-19T20:58:20.634Z,2.03
2018-09-19T21:00:49.943Z,1.57
2018-09-19T21:03:18.237Z,2.07
2018-09-19T21:05:46.545Z,2.07
2018-09-19T21:08:14.859Z,1.77
2018-09-19T21:10:43.620Z,2.07
2018-09-19T21:13:11.983Z,1.93
2018-09-19T21:15:40.254Z,2.13
2018-09-19T21:18:08.527Z,2.00
2018-09-19T21:20:38.045Z,1.80
2018-09-19T21:23:07.206Z,2.40
2018-09-19T21:25:35.507Z,1.83
2018-09-19T21:28:03.857Z,2.40
2018-09-19T21:30:32.356Z,1.70
2018-09-19T21:33:00.703Z,2.23
2018-09-19T21:35:28.997Z,1.80
2018-09-19T21:37:58.032Z,1.67
2018-09-19T21:40:26.762Z,1.90
2018-09-19T21:42:55.544Z,2.07
2018-09-19T21:45:23.833Z,1.80
2018-09-19T21:47:52.137Z,1.90
2018-09-19T21:50:20.475Z,1.70
2018-09-19T21:52:49.335Z,1.97
2018-09-19T21:55:17.718Z,2.10
2018-09-19T21:57:46.004Z,1.67
2018-09-19T22:00:14.281Z,1.90
2018-09-19T22:02:43.026Z,1.80
2018-09-19T22:05:11.393Z,1.90
2018-09-19T22:07:39.590Z,1.87
2018-09-19T22:10:08.427Z,2.17
2018-09-19T22:12:41.611Z,1.90
2018-09-19T22:15:09.958Z,2.30
2018-09-19T22:17:38.247Z,1.80
2018-09-19T22:20:06.546Z,2.23
2018-09-19T22:22:36.799Z,2.20
2018-09-19T22:25:05.174Z,2.27
2018-09-19T22:27:33.501Z,1.83
2018-09-19T22:30:01.763Z,1.97
2018-09-19T22:32:30.242Z,1.83
2018-09-19T22:34:58.792Z,2.00
2018-09-19T22:37:27.079Z,1.93
2018-09-19T22:39:55.385Z,2.30
2018-09-19T22:42:23.675Z,1.93
2018-09-19T22:44:53.149Z,2.30
2018-09-19T22:47:21.529Z,1.63
2018-09-19T22:49:49.843Z,2.03
2018-09-19T22:52:18.143Z,2.30
2018-09-19T22:54:46.949Z,2.10
2018-09-19T22:57:15.350Z,1.90
2018-09-19T22:59:44.017Z,2.20
2018-09-19T23:02:12.340Z,2.03
2018-09-19T23:04:41.125Z,2.40
2018-09-19T23:07:09.430Z,2.00
2018-09-19T23:09:37.728Z,2.00
2018-09-19T23:12:06.068Z,2.20
2018-09-19T23:14:34.440Z,2.47
2018-09-19T23:17:02.808Z,2.30
2018-09-19T23:19:31.102Z,2.20
2018-09-19T23:21:59.402Z,2.17
2018-09-19T23:24:27.754Z,2.17
2018-09-19T23:26:56.912Z,1.73
2018-09-19T23:29:26.624Z,2.07
2018-09-19T23:31:55.032Z,2.10
2018-09-19T23:34:23.323Z,2.37
2018-09-19T23:36:52.580Z,2.00
2018-09-19T23:39:20.852Z,1.90
2018-09-19T23:41:49.243Z,2.13
2018-09-19T23:44:17.498Z,1.90
2018-09-19T23:46:46.233Z,2.03
2018-09-19T23:49:14.561Z,2.00
2018-09-19T23:51:42.892Z,2.07
2018-09-19T23:54:11.171Z,2.83
2018-09-19T23:56:40.311Z,2.00
2018-09-19T23:59:08.642Z,2.03
